createdAt,value
2022-10-30T00:00:47.877Z,99.90
2022-10-30T00:03:15.871Z,99.90
2022-10-30T00:05:44.484Z,99.90
2022-10-30T00:08:13.581Z,99.90
2022-10-30T00:10:41.029Z,99.90
2022-10-30T00:13:08.029Z,99.90
2022-10-30T00:15:34.914Z,99.90
2022-10-30T00:18:02.363Z,99.90
2022-10-30T00:20:29.252Z,99.90
2022-10-30T00:22:56.561Z,99.90
2022-10-30T00:25:23.801Z,99.90
2022-10-30T00:27:50.461Z,99.90
2022-10-30T00:30:18.917Z,99.90
2022-10-30T00:32:45.732Z,99.90
2022-10-30T00:35:12.545Z,99.90
2022-10-30T00:37:39.354Z,99.90
2022-10-30T00:40:06.944Z,99.90
2022-10-30T00:42:34.112Z,99.90
2022-10-30T00:45:00.863Z,99.90
2022-10-30T00:47:32.625Z,99.90
2022-10-30T00:50:08.451Z,99.90
2022-10-30T00:52:40.700Z,99.90
2022-10-30T00:55:15.678Z,99.90
2022-10-30T00:57:44.370Z,99.90
2022-10-30T01:00:13.073Z,99.90
2022-10-30T01:02:41.197Z,99.90
2022-10-30T01:05:08.173Z,99.90
2022-10-30T01:07:34.875Z,99.90
2022-10-30T01:10:01.654Z,99.90
2022-10-30T01:12:28.531Z,99.90
2022-10-30T01:14:57.669Z,99.90
2022-10-30T01:17:53.874Z,99.90
2022-10-30T01:20:42.369Z,99.90
2022-10-30T01:23:28.163Z,99.90
2022-10-30T01:26:08.886Z,99.90
2022-10-30T01:29:01.653Z,99.90
2022-10-30T01:31:44.193Z,99.90
2022-10-30T01:34:21.100Z,99.90
2022-10-30T01:37:14.064Z,99.90
2022-10-30T01:39:41.540Z,99.90
2022-10-30T01:42:43.745Z,99.90
2022-10-30T01:45:20.336Z,99.90
2022-10-30T01:47:56.111Z,99.90
2022-10-30T01:50:40.880Z,99.90
2022-10-30T01:53:23.537Z,99.90
2022-10-30T01:56:06.848Z,99.90
2022-10-30T01:58:43.454Z,99.90
2022-10-30T02:01:11.514Z,99.90
2022-10-30T02:03:38.949Z,99.90
2022-10-30T02:06:05.976Z,99.90
2022-10-30T02:08:32.765Z,99.90
2022-10-30T02:11:00.135Z,99.90
2022-10-30T02:13:26.976Z,99.90
2022-10-30T02:15:53.947Z,99.90
2022-10-30T02:18:20.857Z,99.90
2022-10-30T02:20:48.506Z,99.90
2022-10-30T02:23:18.962Z,99.90
2022-10-30T02:25:46.113Z,99.90
2022-10-30T02:28:13.177Z,99.90
2022-10-30T02:30:44.057Z,99.90
2022-10-30T02:33:11.284Z,99.90
2022-10-30T02:35:38.069Z,99.90
2022-10-30T02:38:04.825Z,99.90
2022-10-30T02:40:31.673Z,99.90
2022-10-30T02:42:58.484Z,99.90
2022-10-30T02:45:25.550Z,99.90
2022-10-30T02:47:52.253Z,99.90
2022-10-30T02:50:18.978Z,99.90
2022-10-30T02:52:45.660Z,99.90
2022-10-30T02:55:12.418Z,99.90
2022-10-30T02:57:39.092Z,99.90
2022-10-30T03:00:06.450Z,99.90
2022-10-30T03:02:33.145Z,99.90
2022-10-30T03:04:59.823Z,99.90
2022-10-30T03:07:26.624Z,99.90
2022-10-30T03:09:54.476Z,99.90
2022-10-30T03:12:22.049Z,99.90
2022-10-30T03:14:49.032Z,99.90
2022-10-30T03:17:15.732Z,99.90
2022-10-30T03:19:42.434Z,99.90
2022-10-30T03:22:09.160Z,99.90
2022-10-30T03:24:35.969Z,99.90
2022-10-30T03:27:02.630Z,99.90
2022-10-30T03:29:29.844Z,99.90
2022-10-30T03:31:56.673Z,99.90
2022-10-30T03:34:23.453Z,99.90
2022-10-30T03:36:50.159Z,99.90
2022-10-30T03:39:16.839Z,99.90
2022-10-30T03:41:43.651Z,99.90
2022-10-30T03:44:10.337Z,99.90
2022-10-30T03:46:37.895Z,99.90
2022-10-30T03:49:04.586Z,99.90
2022-10-30T03:51:31.226Z,99.90
2022-10-30T03:53:58.025Z,99.90
2022-10-30T03:56:24.736Z,99.90
2022-10-30T03:58:51.415Z,99.90
2022-10-30T04:01:18.240Z,99.90
2022-10-30T04:03:44.990Z,99.90
2022-10-30T04:06:11.778Z,99.90
2022-10-30T04:08:38.513Z,99.90
2022-10-30T04:11:05.652Z,99.90
2022-10-30T04:13:32.382Z,99.90
2022-10-30T04:15:59.073Z,99.90
2022-10-30T04:18:26.305Z,99.90
2022-10-30T04:20:54.217Z,99.90
2022-10-30T04:23:22.163Z,99.90
2022-10-30T04:25:49.200Z,99.90
2022-10-30T04:28:16.354Z,99.90
2022-10-30T04:30:43.848Z,99.90
2022-10-30T04:33:12.629Z,99.90
2022-10-30T04:35:40.418Z,99.90
2022-10-30T04:38:12.789Z,99.90
2022-10-30T04:40:41.580Z,99.90
2022-10-30T04:43:09.383Z,99.90
2022-10-30T04:45:37.106Z,99.90
2022-10-30T04:48:10.350Z,99.90
2022-10-30T04:50:37.162Z,99.90
2022-10-30T04:53:06.468Z,99.90
2022-10-30T04:55:33.643Z,99.90
2022-10-30T04:58:03.004Z,99.90
2022-10-30T05:00:30.616Z,99.90
2022-10-30T05:03:03.829Z,99.90
2022-10-30T05:05:31.561Z,99.90
2022-10-30T05:07:58.659Z,99.90
2022-10-30T05:10:25.860Z,99.90
2022-10-30T05:12:54.343Z,99.90
2022-10-30T05:15:21.135Z,99.90
2022-10-30T05:17:52.552Z,99.90
2022-10-30T05:20:19.466Z,99.90
2022-10-30T05:22:46.537Z,99.90
2022-10-30T05:25:13.400Z,99.90
2022-10-30T05:27:40.086Z,99.90
2022-10-30T05:30:07.411Z,99.90
2022-10-30T05:32:34.075Z,99.90
2022-10-30T05:35:00.741Z,99.90
2022-10-30T05:37:27.530Z,99.90
2022-10-30T05:39:54.264Z,99.90
2022-10-30T05:42:20.951Z,99.90
2022-10-30T05:45:00.411Z,99.90
2022-10-30T05:47:28.324Z,99.90
2022-10-30T05:49:55.026Z,99.90
2022-10-30T05:52:21.687Z,99.90
2022-10-30T05:54:48.344Z,99.90
2022-10-30T05:57:15.040Z,99.90
2022-10-30T05:59:41.746Z,99.90
2022-10-30T06:02:08.475Z,99.90
2022-10-30T06:04:35.212Z,99.90
2022-10-30T06:07:01.887Z,99.90
2022-10-30T06:09:28.553Z,99.90
2022-10-30T06:11:55.683Z,99.90
2022-10-30T06:14:22.383Z,99.90
2022-10-30T06:16:49.230Z,99.90
2022-10-30T06:19:18.591Z,99.90
2022-10-30T06:21:46.138Z,99.90
2022-10-30T06:24:13.385Z,99.90
2022-10-30T06:26:40.515Z,99.90
2022-10-30T06:29:07.442Z,99.90
2022-10-30T06:31:34.186Z,99.90
2022-10-30T06:34:01.060Z,99.90
2022-10-30T06:36:28.019Z,99.90
2022-10-30T06:38:54.680Z,99.90
2022-10-30T06:41:25.910Z,99.90
2022-10-30T06:43:55.817Z,99.90
2022-10-30T06:46:25.718Z,99.90
2022-10-30T06:48:55.955Z,99.90
2022-10-30T06:51:22.761Z,99.90
2022-10-30T06:53:49.503Z,99.90
2022-10-30T06:56:16.170Z,99.90
2022-10-30T06:58:43.161Z,99.90
2022-10-30T07:01:10.004Z,99.90
2022-10-30T07:03:36.778Z,99.90
2022-10-30T07:06:03.619Z,99.90
2022-10-30T07:08:30.283Z,99.90
2022-10-30T07:10:58.560Z,99.90
2022-10-30T07:13:25.384Z,99.90
2022-10-30T07:15:52.040Z,99.90
2022-10-30T07:18:18.688Z,99.90
2022-10-30T07:20:45.382Z,99.90
2022-10-30T07:23:12.053Z,99.90
2022-10-30T07:25:38.757Z,99.90
2022-10-30T07:28:06.029Z,99.90
2022-10-30T07:30:32.726Z,99.90
2022-10-30T07:33:05.041Z,99.90
2022-10-30T07:35:33.099Z,99.90
2022-10-30T07:38:07.601Z,99.90
2022-10-30T07:40:34.827Z,99.90
2022-10-30T07:43:03.309Z,99.90
2022-10-30T07:45:30.883Z,99.90
2022-10-30T07:47:58.132Z,99.90
2022-10-30T07:50:25.343Z,99.90
2022-10-30T07:52:52.080Z,99.90
2022-10-30T07:55:18.967Z,99.90
2022-10-30T07:57:45.678Z,99.90
2022-10-30T08:00:13.957Z,99.90
2022-10-30T08:02:41.384Z,99.90
2022-10-30T08:05:08.805Z,99.90
2022-10-30T08:07:37.443Z,99.90
2022-10-30T08:10:05.447Z,99.90
2022-10-30T08:12:34.368Z,99.90
2022-10-30T08:15:01.440Z,99.90
2022-10-30T08:17:28.632Z,99.90
2022-10-30T08:19:57.056Z,99.90
2022-10-30T08:22:24.052Z,99.90
2022-10-30T08:24:50.880Z,99.90
2022-10-30T08:27:17.577Z,99.90
2022-10-30T08:29:44.211Z,99.90
2022-10-30T08:32:10.995Z,99.90
2022-10-30T08:34:37.669Z,99.90
2022-10-30T08:37:04.369Z,99.90
2022-10-30T08:39:31.016Z,99.90
2022-10-30T08:41:59.303Z,99.90
2022-10-30T08:44:26.511Z,99.90
2022-10-30T08:46:53.307Z,99.90
2022-10-30T08:49:20.389Z,99.90
2022-10-30T08:51:47.159Z,99.90
2022-10-30T08:54:13.821Z,99.90
2022-10-30T08:56:40.507Z,99.90
2022-10-30T08:59:07.200Z,99.90
2022-10-30T09:01:34.007Z,99.90
2022-10-30T09:04:00.781Z,99.90
2022-10-30T09:06:27.666Z,99.90
2022-10-30T09:08:54.574Z,99.90
2022-10-30T09:11:21.366Z,99.90
2022-10-30T09:13:48.111Z,99.90
2022-10-30T09:16:14.789Z,99.90
2022-10-30T09:18:42.029Z,99.90
2022-10-30T09:21:08.777Z,99.90
2022-10-30T09:23:35.446Z,99.90
2022-10-30T09:26:02.355Z,99.90
2022-10-30T09:28:29.069Z,99.90
2022-10-30T09:30:56.978Z,99.90
2022-10-30T09:33:23.815Z,99.70
2022-10-30T09:35:50.689Z,99.40
2022-10-30T09:38:17.543Z,98.60
2022-10-30T09:40:54.433Z,97.60
2022-10-30T09:44:02.024Z,98.10
2022-10-30T09:46:40.548Z,97.50
2022-10-30T09:49:52.249Z,96.10
2022-10-30T09:52:30.007Z,94.70
2022-10-30T09:55:08.663Z,94.90
2022-10-30T09:57:35.419Z,94.30
2022-10-30T10:00:10.710Z,94.50
2022-10-30T10:02:54.340Z,93.70
2022-10-30T10:05:32.612Z,92.10
2022-10-30T10:08:06.834Z,91.90
2022-10-30T10:10:33.546Z,90.10
2022-10-30T10:13:01.598Z,86.50
2022-10-30T10:16:12.681Z,85.70
2022-10-30T10:18:45.870Z,86.00
2022-10-30T10:21:33.085Z,82.30
2022-10-30T10:24:03.499Z,80.20
2022-10-30T10:26:50.370Z,81.00
2022-10-30T10:29:34.033Z,79.30
2022-10-30T10:32:03.838Z,80.80
2022-10-30T10:34:52.418Z,76.80
2022-10-30T10:37:49.833Z,78.20
2022-10-30T10:40:22.306Z,78.80
2022-10-30T10:43:19.380Z,78.80
2022-10-30T10:46:07.658Z,76.90
2022-10-30T10:49:09.445Z,74.90
2022-10-30T10:51:51.732Z,72.40
2022-10-30T10:54:42.638Z,69.20
2022-10-30T10:57:27.295Z,67.50
2022-10-30T11:00:03.436Z,65.60
2022-10-30T11:02:54.668Z,65.10
2022-10-30T11:05:43.038Z,65.00
2022-10-30T11:08:32.988Z,62.40
2022-10-30T11:11:02.518Z,60.90
2022-10-30T11:13:42.472Z,62.80
2022-10-30T11:16:24.950Z,59.80
2022-10-30T11:19:04.636Z,59.00
2022-10-30T11:21:37.696Z,56.70
2022-10-30T11:24:24.540Z,56.30
2022-10-30T11:26:51.308Z,57.10
2022-10-30T11:29:24.784Z,56.70
2022-10-30T11:32:03.181Z,55.40
2022-10-30T11:34:38.787Z,54.40
2022-10-30T11:37:05.681Z,54.20
2022-10-30T11:39:35.775Z,53.80
2022-10-30T11:42:18.315Z,53.40
2022-10-30T11:44:52.063Z,52.30
2022-10-30T11:47:24.108Z,51.10
2022-10-30T11:50:00.213Z,50.50
2022-10-30T11:52:27.680Z,49.00
2022-10-30T11:55:08.223Z,49.80
2022-10-30T11:57:57.155Z,47.70
2022-10-30T12:00:30.688Z,47.60
2022-10-30T12:03:03.616Z,46.10
2022-10-30T12:05:30.747Z,45.90
2022-10-30T12:08:09.349Z,44.80
2022-10-30T12:10:51.693Z,44.30
2022-10-30T12:13:20.731Z,44.30
2022-10-30T12:15:49.863Z,44.40
2022-10-30T12:18:24.571Z,45.10
2022-10-30T12:20:57.254Z,44.50
2022-10-30T12:23:26.755Z,43.90
2022-10-30T12:26:14.860Z,43.90
2022-10-30T12:28:55.056Z,42.10
2022-10-30T12:31:32.645Z,41.40
2022-10-30T12:34:05.282Z,42.00
2022-10-30T12:36:37.608Z,41.80
2022-10-30T12:39:18.502Z,41.00
2022-10-30T12:42:09.063Z,41.10
2022-10-30T12:44:41.398Z,40.90
2022-10-30T12:47:31.267Z,40.70
2022-10-30T12:50:02.262Z,41.20
2022-10-30T12:52:35.417Z,39.90
2022-10-30T12:55:34.151Z,39.70
2022-10-30T12:58:26.156Z,40.10
2022-10-30T13:01:27.096Z,38.90
2022-10-30T13:04:12.763Z,39.10
2022-10-30T13:06:53.141Z,38.90
2022-10-30T13:09:32.739Z,38.70
2022-10-30T13:12:22.857Z,39.10
2022-10-30T13:14:53.352Z,37.70
2022-10-30T13:17:20.374Z,36.70
2022-10-30T13:19:48.402Z,35.50
2022-10-30T13:22:57.387Z,35.20
2022-10-30T13:25:41.657Z,33.60
2022-10-30T13:28:27.114Z,34.80
2022-10-30T13:31:28.457Z,33.00
2022-10-30T13:34:02.850Z,32.60
2022-10-30T13:36:49.437Z,31.80
2022-10-30T13:39:22.779Z,31.20
2022-10-30T13:42:10.539Z,30.40
2022-10-30T13:45:11.116Z,30.40
2022-10-30T13:47:45.032Z,28.80
2022-10-30T13:50:32.559Z,29.20
2022-10-30T13:53:03.453Z,29.70
2022-10-30T13:55:32.980Z,29.10
2022-10-30T13:58:32.441Z,29.40
2022-10-30T14:01:07.934Z,29.60
2022-10-30T14:03:44.559Z,30.00
2022-10-30T14:06:17.375Z,30.50
2022-10-30T14:08:51.710Z,31.50
2022-10-30T14:11:18.505Z,31.90
2022-10-30T14:13:56.524Z,32.60
2022-10-30T14:16:49.455Z,32.80
2022-10-30T14:19:18.163Z,33.40
2022-10-30T14:21:48.016Z,34.10
2022-10-30T14:24:23.981Z,34.60
2022-10-30T14:27:04.075Z,35.00
2022-10-30T14:29:33.953Z,35.70
2022-10-30T14:32:13.580Z,36.50
2022-10-30T14:34:52.493Z,37.40
2022-10-30T14:37:39.060Z,37.80
2022-10-30T14:40:50.521Z,38.50
2022-10-30T14:43:36.683Z,38.80
2022-10-30T14:46:16.216Z,39.50
2022-10-30T14:49:11.614Z,40.60
2022-10-30T14:51:45.269Z,41.40
2022-10-30T14:54:21.738Z,42.30
2022-10-30T14:56:50.508Z,42.40
2022-10-30T14:59:17.281Z,43.10
2022-10-30T15:01:58.946Z,44.20
2022-10-30T15:04:52.732Z,43.80
2022-10-30T15:08:04.306Z,44.00
2022-10-30T15:10:36.401Z,44.40
2022-10-30T15:13:22.880Z,44.40
2022-10-30T15:16:01.344Z,45.10
2022-10-30T15:18:30.706Z,45.80
2022-10-30T15:21:05.253Z,46.10
2022-10-30T15:23:35.590Z,47.10
2022-10-30T15:26:09.474Z,47.50
2022-10-30T15:28:38.749Z,48.30
2022-10-30T15:31:17.392Z,48.30
2022-10-30T15:33:44.728Z,48.50
2022-10-30T15:36:18.623Z,49.10
2022-10-30T15:39:01.672Z,48.90
2022-10-30T15:41:29.483Z,49.00
2022-10-30T15:43:58.388Z,49.60
2022-10-30T15:46:25.284Z,49.50
2022-10-30T15:48:52.217Z,49.90
2022-10-30T15:51:24.259Z,50.00
2022-10-30T15:53:59.700Z,49.10
2022-10-30T15:56:33.625Z,49.40
2022-10-30T15:59:06.591Z,49.70
2022-10-30T16:01:43.654Z,48.50
2022-10-30T16:04:20.750Z,48.40
2022-10-30T16:06:50.895Z,47.50
2022-10-30T16:09:18.209Z,47.90
2022-10-30T16:11:46.111Z,47.60
2022-10-30T16:14:21.235Z,47.10
2022-10-30T16:16:47.974Z,46.90
2022-10-30T16:19:29.146Z,47.30
2022-10-30T16:21:57.594Z,48.10
2022-10-30T16:24:32.411Z,47.50
2022-10-30T16:27:18.150Z,47.70
2022-10-30T16:29:47.214Z,48.00
2022-10-30T16:32:17.680Z,48.20
2022-10-30T16:34:46.622Z,49.30
2022-10-30T16:37:19.293Z,50.30
2022-10-30T16:39:47.669Z,50.40
2022-10-30T16:42:20.794Z,51.70
2022-10-30T16:44:48.095Z,51.80
2022-10-30T16:47:17.637Z,52.80
2022-10-30T16:49:49.779Z,54.10
2022-10-30T16:52:17.112Z,53.80
2022-10-30T16:55:00.845Z,54.80
2022-10-30T16:57:31.000Z,55.30
2022-10-30T16:59:59.772Z,51.90
2022-10-30T17:02:36.006Z,54.40
2022-10-30T17:05:18.996Z,55.60
2022-10-30T17:08:00.929Z,53.80
2022-10-30T17:10:54.085Z,52.70
2022-10-30T17:13:42.688Z,52.20
2022-10-30T17:16:25.923Z,53.20
2022-10-30T17:18:54.856Z,52.90
2022-10-30T17:21:39.762Z,53.60
2022-10-30T17:24:19.127Z,54.20
2022-10-30T17:26:58.185Z,53.80
2022-10-30T17:29:45.054Z,53.70
2022-10-30T17:32:25.366Z,53.70
2022-10-30T17:35:02.173Z,53.80
2022-10-30T17:37:29.276Z,54.30
2022-10-30T17:39:56.237Z,55.30
2022-10-30T17:42:22.902Z,54.40
2022-10-30T17:44:49.639Z,54.40
2022-10-30T17:47:20.562Z,53.60
2022-10-30T17:49:49.286Z,53.30
2022-10-30T17:52:19.454Z,52.40
2022-10-30T17:54:46.212Z,52.50
2022-10-30T17:57:15.462Z,54.60
2022-10-30T17:59:43.367Z,52.50
2022-10-30T18:02:14.453Z,52.70
2022-10-30T18:04:44.286Z,53.40
2022-10-30T18:07:12.411Z,53.60
2022-10-30T18:09:39.453Z,54.30
2022-10-30T18:12:07.689Z,55.90
2022-10-30T18:14:34.386Z,57.50
2022-10-30T18:17:01.726Z,56.90
2022-10-30T18:19:28.533Z,56.20
2022-10-30T18:21:55.404Z,56.40
2022-10-30T18:24:22.353Z,56.50
2022-10-30T18:26:49.091Z,57.40
2022-10-30T18:29:15.806Z,56.90
2022-10-30T18:31:42.606Z,60.10
2022-10-30T18:34:16.940Z,61.40
2022-10-30T18:36:44.278Z,63.50
2022-10-30T18:39:12.948Z,65.80
2022-10-30T18:41:45.353Z,69.50
2022-10-30T18:44:18.463Z,68.50
2022-10-30T18:46:46.068Z,71.00
2022-10-30T18:49:13.015Z,73.50
2022-10-30T18:51:39.964Z,74.90
2022-10-30T18:54:16.597Z,75.60
2022-10-30T18:56:43.464Z,78.50
2022-10-30T18:59:10.214Z,83.40
2022-10-30T19:01:37.540Z,85.60
2022-10-30T19:04:09.912Z,81.90
2022-10-30T19:06:38.522Z,85.40
2022-10-30T19:09:05.313Z,83.70
2022-10-30T19:11:32.287Z,81.90
2022-10-30T19:13:59.573Z,85.00
2022-10-30T19:16:26.603Z,88.40
2022-10-30T19:18:53.693Z,90.80
2022-10-30T19:21:23.116Z,89.70
2022-10-30T19:23:49.985Z,90.00
2022-10-30T19:26:17.549Z,91.30
2022-10-30T19:28:45.657Z,92.30
2022-10-30T19:31:31.154Z,93.30
2022-10-30T19:33:57.958Z,95.00
2022-10-30T19:36:29.403Z,94.60
2022-10-30T19:38:56.307Z,94.80
2022-10-30T19:41:24.625Z,95.70
2022-10-30T19:43:52.291Z,96.20
2022-10-30T19:46:19.239Z,95.70
2022-10-30T19:49:01.343Z,96.20
2022-10-30T19:51:28.925Z,96.70
2022-10-30T19:53:56.126Z,97.30
2022-10-30T19:56:23.124Z,96.90
2022-10-30T19:58:49.870Z,97.50
2022-10-30T20:01:16.954Z,97.50
2022-10-30T20:03:43.831Z,98.00
2022-10-30T20:06:14.270Z,97.50
2022-10-30T20:08:41.576Z,98.40
2022-10-30T20:11:08.599Z,98.40
2022-10-30T20:13:36.940Z,98.70
2022-10-30T20:16:05.101Z,99.40
2022-10-30T20:18:34.237Z,99.90
2022-10-30T20:21:03.642Z,99.90
2022-10-30T20:23:31.083Z,99.90
2022-10-30T20:26:31.404Z,99.90
2022-10-30T20:29:01.739Z,99.90
2022-10-30T20:31:28.432Z,99.90
2022-10-30T20:33:55.092Z,99.90
2022-10-30T20:36:21.867Z,99.90
2022-10-30T20:38:48.527Z,99.90
2022-10-30T20:41:24.503Z,99.90
2022-10-30T20:43:51.715Z,99.90
2022-10-30T20:46:19.993Z,99.90
2022-10-30T20:48:47.314Z,99.90
2022-10-30T20:51:14.580Z,99.90
2022-10-30T20:53:41.435Z,99.90
2022-10-30T20:56:08.105Z,99.90
2022-10-30T20:58:34.916Z,99.90
2022-10-30T21:01:01.773Z,99.90
2022-10-30T21:03:28.625Z,99.90
2022-10-30T21:06:00.819Z,99.90
2022-10-30T21:08:29.551Z,99.90
2022-10-30T21:11:04.535Z,99.90
2022-10-30T21:13:33.214Z,99.90
2022-10-30T21:16:01.845Z,99.90
2022-10-30T21:18:28.798Z,99.90
2022-10-30T21:21:03.532Z,99.90
2022-10-30T21:23:30.229Z,99.90
2022-10-30T21:26:02.963Z,99.90
2022-10-30T21:28:29.922Z,99.90
2022-10-30T21:31:04.905Z,99.90
2022-10-30T21:33:33.347Z,99.90
2022-10-30T21:36:13.453Z,99.90
2022-10-30T21:38:42.269Z,99.90
2022-10-30T21:41:13.886Z,99.90
2022-10-30T21:43:40.921Z,99.90
2022-10-30T21:46:09.474Z,99.90
2022-10-30T21:48:36.467Z,99.90
2022-10-30T21:51:12.059Z,99.90
2022-10-30T21:53:39.101Z,99.90
2022-10-30T21:56:08.404Z,99.90
2022-10-30T21:58:35.156Z,99.90
2022-10-30T22:01:02.080Z,99.90
2022-10-30T22:03:28.805Z,99.90
2022-10-30T22:05:55.441Z,99.90
2022-10-30T22:08:22.190Z,99.90
2022-10-30T22:10:49.081Z,99.90
2022-10-30T22:13:16.104Z,99.90
2022-10-30T22:15:42.843Z,99.90
2022-10-30T22:18:11.343Z,99.90
2022-10-30T22:20:38.142Z,99.90
2022-10-30T22:23:04.886Z,99.90
2022-10-30T22:25:31.551Z,99.90
2022-10-30T22:27:58.751Z,99.90
2022-10-30T22:30:25.703Z,99.90
2022-10-30T22:32:52.393Z,99.90
2022-10-30T22:35:19.045Z,99.90
2022-10-30T22:37:45.689Z,99.90
2022-10-30T22:40:12.470Z,99.90
2022-10-30T22:42:39.191Z,99.90
2022-10-30T22:45:06.461Z,99.90
2022-10-30T22:47:33.130Z,99.90
2022-10-30T22:49:59.830Z,99.90
2022-10-30T22:52:26.500Z,99.90
2022-10-30T22:54:53.168Z,99.90
2022-10-30T22:57:19.841Z,99.90
2022-10-30T22:59:46.482Z,99.90
2022-10-30T23:02:13.240Z,99.90
2022-10-30T23:04:40.021Z,99.90
2022-10-30T23:07:06.709Z,99.90
2022-10-30T23:09:33.405Z,99.90
2022-10-30T23:12:00.097Z,99.90
2022-10-30T23:14:26.807Z,99.90
2022-10-30T23:16:53.466Z,99.90
2022-10-30T23:19:20.109Z,99.90
2022-10-30T23:21:46.778Z,99.90
2022-10-30T23:24:13.495Z,99.90
2022-10-30T23:26:40.216Z,99.90
2022-10-30T23:29:06.886Z,99.90
2022-10-30T23:31:35.521Z,99.90
2022-10-30T23:34:04.894Z,99.90
2022-10-30T23:36:31.590Z,99.90
2022-10-30T23:39:01.126Z,99.90
2022-10-30T23:41:30.634Z,99.90
2022-10-30T23:44:02.584Z,99.90
2022-10-30T23:46:29.537Z,99.90
2022-10-30T23:48:56.508Z,99.90
2022-10-30T23:51:23.963Z,99.90
2022-10-30T23:53:51.260Z,99.90
2022-10-30T23:56:18.572Z,99.90
2022-10-30T23:58:46.973Z,99.90
